sensor_id;sensor_type;location;lat;lon;timestamp;P1;durP1;ratioP1;P2;durP2;ratioP2
59854;SDS011;45732;52.850;6.896;2023-08-30T00:01:55;15.40;;;13.80;;
59854;SDS011;45732;52.850;6.896;2023-08-30T00:04:21;17.23;;;15.18;;
59854;SDS011;45732;52.850;6.896;2023-08-30T00:06:47;16.48;;;14.70;;
59854;SDS011;45732;52.850;6.896;2023-08-30T00:09:13;15.48;;;13.88;;
59854;SDS011;45732;52.850;6.896;2023-08-30T00:11:39;16.02;;;14.32;;
59854;SDS011;45732;52.850;6.896;2023-08-30T00:14:05;15.98;;;14.27;;
59854;SDS011;45732;52.850;6.896;2023-08-30T00:16:35;17.20;;;14.85;;
59854;SDS011;45732;52.850;6.896;2023-08-30T00:19:03;16.25;;;14.65;;
59854;SDS011;45732;52.850;6.896;2023-08-30T00:21:29;16.55;;;14.00;;
59854;SDS011;45732;52.850;6.896;2023-08-30T00:23:55;16.45;;;14.70;;
59854;SDS011;45732;52.850;6.896;2023-08-30T00:26:21;16.67;;;14.98;;
59854;SDS011;45732;52.850;6.896;2023-08-30T00:28:47;16.30;;;14.63;;
59854;SDS011;45732;52.850;6.896;2023-08-30T00:31:12;15.93;;;14.32;;
59854;SDS011;45732;52.850;6.896;2023-08-30T00:33:38;15.35;;;13.77;;
59854;SDS011;45732;52.850;6.896;2023-08-30T00:36:04;15.75;;;13.98;;
59854;SDS011;45732;52.850;6.896;2023-08-30T00:38:30;15.57;;;13.93;;
59854;SDS011;45732;52.850;6.896;2023-08-30T00:40:58;14.93;;;13.32;;
59854;SDS011;45732;52.850;6.896;2023-08-30T00:43:24;15.75;;;13.98;;
59854;SDS011;45732;52.850;6.896;2023-08-30T00:45:50;15.75;;;13.98;;
59854;SDS011;45732;52.850;6.896;2023-08-30T00:48:16;15.40;;;13.50;;
59854;SDS011;45732;52.850;6.896;2023-08-30T00:50:44;15.07;;;13.48;;
59854;SDS011;45732;52.850;6.896;2023-08-30T00:53:11;14.93;;;13.38;;
59854;SDS011;45732;52.850;6.896;2023-08-30T00:55:37;15.90;;;14.18;;
59854;SDS011;45732;52.850;6.896;2023-08-30T00:58:04;15.77;;;14.07;;
59854;SDS011;45732;52.850;6.896;2023-08-30T01:00:30;15.30;;;13.70;;
59854;SDS011;45732;52.850;6.896;2023-08-30T01:02:56;15.38;;;13.77;;
59854;SDS011;45732;52.850;6.896;2023-08-30T01:05:23;14.68;;;13.02;;
59854;SDS011;45732;52.850;6.896;2023-08-30T01:07:50;14.77;;;13.05;;
59854;SDS011;45732;52.850;6.896;2023-08-30T01:10:16;14.88;;;13.10;;
59854;SDS011;45732;52.850;6.896;2023-08-30T01:12:43;15.63;;;13.95;;
59854;SDS011;45732;52.850;6.896;2023-08-30T01:15:19;15.75;;;12.63;;
59854;SDS011;45732;52.850;6.896;2023-08-30T01:17:49;16.98;;;13.35;;
59854;SDS011;45732;52.850;6.896;2023-08-30T01:20:17;15.10;;;13.50;;
59854;SDS011;45732;52.850;6.896;2023-08-30T01:28:21;13.73;;;12.32;;
59854;SDS011;45732;52.850;6.896;2023-08-30T01:30:49;13.38;;;12.02;;
59854;SDS011;45732;52.850;6.896;2023-08-30T01:33:19;13.93;;;12.52;;
59854;SDS011;45732;52.850;6.896;2023-08-30T01:35:46;14.15;;;12.48;;
59854;SDS011;45732;52.850;6.896;2023-08-30T01:38:12;14.82;;;12.45;;
59854;SDS011;45732;52.850;6.896;2023-08-30T01:40:41;14.55;;;11.77;;
59854;SDS011;45732;52.850;6.896;2023-08-30T01:43:08;14.10;;;12.60;;
59854;SDS011;45732;52.850;6.896;2023-08-30T01:45:40;14.80;;;11.95;;
59854;SDS011;45732;52.850;6.896;2023-08-30T01:48:09;15.60;;;12.55;;
59854;SDS011;45732;52.850;6.896;2023-08-30T01:50:38;14.15;;;11.82;;
59854;SDS011;45732;52.850;6.896;2023-08-30T01:53:06;13.88;;;12.48;;
59854;SDS011;45732;52.850;6.896;2023-08-30T01:55:33;14.90;;;13.13;;
59854;SDS011;45732;52.850;6.896;2023-08-30T01:58:00;15.25;;;12.68;;
59854;SDS011;45732;52.850;6.896;2023-08-30T02:00:26;14.73;;;12.38;;
59854;SDS011;45732;52.850;6.896;2023-08-30T02:02:52;14.50;;;12.73;;
59854;SDS011;45732;52.850;6.896;2023-08-30T02:05:17;13.77;;;11.85;;
59854;SDS011;45732;52.850;6.896;2023-08-30T02:07:46;16.10;;;12.75;;
59854;SDS011;45732;52.850;6.896;2023-08-30T02:10:28;13.30;;;11.85;;
59854;SDS011;45732;52.850;6.896;2023-08-30T02:12:59;14.85;;;12.20;;
59854;SDS011;45732;52.850;6.896;2023-08-30T02:15:26;15.02;;;11.98;;
59854;SDS011;45732;52.850;6.896;2023-08-30T02:17:55;15.70;;;12.27;;
59854;SDS011;45732;52.850;6.896;2023-08-30T02:20:21;14.43;;;11.90;;
59854;SDS011;45732;52.850;6.896;2023-08-30T02:22:47;15.15;;;12.07;;
59854;SDS011;45732;52.850;6.896;2023-08-30T02:25:13;13.15;;;11.52;;
59854;SDS011;45732;52.850;6.896;2023-08-30T02:27:39;12.70;;;11.32;;
59854;SDS011;45732;52.850;6.896;2023-08-30T02:30:05;12.98;;;11.63;;
59854;SDS011;45732;52.850;6.896;2023-08-30T02:32:32;13.00;;;11.48;;
59854;SDS011;45732;52.850;6.896;2023-08-30T02:34:58;13.18;;;10.93;;
59854;SDS011;45732;52.850;6.896;2023-08-30T02:37:24;13.63;;;11.13;;
59854;SDS011;45732;52.850;6.896;2023-08-30T02:39:50;15.48;;;11.55;;
59854;SDS011;45732;52.850;6.896;2023-08-30T02:42:16;14.05;;;12.02;;
59854;SDS011;45732;52.850;6.896;2023-08-30T02:44:41;14.27;;;12.43;;
59854;SDS011;45732;52.850;6.896;2023-08-30T02:47:07;13.63;;;11.55;;
59854;SDS011;45732;52.850;6.896;2023-08-30T02:49:33;14.70;;;12.30;;
59854;SDS011;45732;52.850;6.896;2023-08-30T02:51:59;17.70;;;12.82;;
59854;SDS011;45732;52.850;6.896;2023-08-30T02:54:24;14.05;;;12.23;;
59854;SDS011;45732;52.850;6.896;2023-08-30T02:56:50;14.63;;;12.20;;
59854;SDS011;45732;52.850;6.896;2023-08-30T02:59:16;14.60;;;12.68;;
59854;SDS011;45732;52.850;6.896;2023-08-30T03:01:41;13.50;;;12.02;;
59854;SDS011;45732;52.850;6.896;2023-08-30T03:04:08;14.73;;;12.15;;
59854;SDS011;45732;52.850;6.896;2023-08-30T03:06:34;14.10;;;12.23;;
59854;SDS011;45732;52.850;6.896;2023-08-30T03:09:00;13.27;;;11.88;;
59854;SDS011;45732;52.850;6.896;2023-08-30T03:11:27;14.82;;;11.98;;
59854;SDS011;45732;52.850;6.896;2023-08-30T03:13:54;14.02;;;12.02;;
59854;SDS011;45732;52.850;6.896;2023-08-30T03:16:20;15.40;;;12.82;;
59854;SDS011;45732;52.850;6.896;2023-08-30T03:18:46;16.45;;;12.32;;
59854;SDS011;45732;52.850;6.896;2023-08-30T03:21:13;16.05;;;12.80;;
59854;SDS011;45732;52.850;6.896;2023-08-30T03:23:39;14.75;;;12.55;;
59854;SDS011;45732;52.850;6.896;2023-08-30T03:28:34;16.58;;;14.02;;
59854;SDS011;45732;52.850;6.896;2023-08-30T03:31:00;16.02;;;13.15;;
59854;SDS011;45732;52.850;6.896;2023-08-30T03:33:26;15.52;;;13.30;;
59854;SDS011;45732;52.850;6.896;2023-08-30T03:35:52;16.05;;;12.85;;
59854;SDS011;45732;52.850;6.896;2023-08-30T03:38:17;15.55;;;13.75;;
59854;SDS011;45732;52.850;6.896;2023-08-30T03:40:44;15.48;;;12.70;;
59854;SDS011;45732;52.850;6.896;2023-08-30T03:43:09;15.20;;;12.88;;
59854;SDS011;45732;52.850;6.896;2023-08-30T03:45:36;17.85;;;13.85;;
59854;SDS011;45732;52.850;6.896;2023-08-30T03:48:02;14.48;;;12.55;;
59854;SDS011;45732;52.850;6.896;2023-08-30T03:50:29;13.98;;;12.20;;
59854;SDS011;45732;52.850;6.896;2023-08-30T03:52:54;14.07;;;12.32;;
59854;SDS011;45732;52.850;6.896;2023-08-30T03:55:20;15.73;;;11.82;;
59854;SDS011;45732;52.850;6.896;2023-08-30T03:57:47;14.80;;;12.23;;
59854;SDS011;45732;52.850;6.896;2023-08-30T04:00:13;15.15;;;12.65;;
59854;SDS011;45732;52.850;6.896;2023-08-30T04:02:39;14.55;;;12.23;;
59854;SDS011;45732;52.850;6.896;2023-08-30T04:05:05;13.95;;;12.15;;
59854;SDS011;45732;52.850;6.896;2023-08-30T04:07:35;14.38;;;12.75;;
59854;SDS011;45732;52.850;6.896;2023-08-30T04:10:01;16.85;;;12.43;;
59854;SDS011;45732;52.850;6.896;2023-08-30T04:12:31;15.80;;;12.40;;
59854;SDS011;45732;52.850;6.896;2023-08-30T04:14:56;16.15;;;13.07;;
59854;SDS011;45732;52.850;6.896;2023-08-30T04:17:22;16.65;;;12.65;;
59854;SDS011;45732;52.850;6.896;2023-08-30T04:19:51;15.40;;;13.30;;
59854;SDS011;45732;52.850;6.896;2023-08-30T04:22:17;15.77;;;12.48;;
59854;SDS011;45732;52.850;6.896;2023-08-30T04:24:43;15.75;;;12.20;;
59854;SDS011;45732;52.850;6.896;2023-08-30T04:27:09;15.45;;;12.63;;
59854;SDS011;45732;52.850;6.896;2023-08-30T04:29:35;15.02;;;11.88;;
59854;SDS011;45732;52.850;6.896;2023-08-30T04:32:00;14.13;;;12.10;;
59854;SDS011;45732;52.850;6.896;2023-08-30T04:34:26;18.30;;;12.75;;
59854;SDS011;45732;52.850;6.896;2023-08-30T04:36:52;17.10;;;13.27;;
59854;SDS011;45732;52.850;6.896;2023-08-30T04:39:18;15.38;;;12.20;;
59854;SDS011;45732;52.850;6.896;2023-08-30T04:41:44;15.15;;;12.30;;
59854;SDS011;45732;52.850;6.896;2023-08-30T04:44:10;15.10;;;12.05;;
59854;SDS011;45732;52.850;6.896;2023-08-30T04:46:35;14.52;;;11.88;;
59854;SDS011;45732;52.850;6.896;2023-08-30T04:49:01;13.18;;;11.32;;
59854;SDS011;45732;52.850;6.896;2023-08-30T04:51:27;13.95;;;11.95;;
59854;SDS011;45732;52.850;6.896;2023-08-30T04:53:53;14.68;;;12.18;;
59854;SDS011;45732;52.850;6.896;2023-08-30T04:56:19;13.90;;;11.52;;
59854;SDS011;45732;52.850;6.896;2023-08-30T04:58:44;15.20;;;11.73;;
59854;SDS011;45732;52.850;6.896;2023-08-30T05:01:10;14.80;;;11.82;;
59854;SDS011;45732;52.850;6.896;2023-08-30T05:03:38;13.93;;;11.25;;
59854;SDS011;45732;52.850;6.896;2023-08-30T05:06:04;13.30;;;11.15;;
59854;SDS011;45732;52.850;6.896;2023-08-30T05:08:30;15.65;;;12.18;;
59854;SDS011;45732;52.850;6.896;2023-08-30T05:10:56;15.38;;;11.50;;
59854;SDS011;45732;52.850;6.896;2023-08-30T05:13:21;16.13;;;11.80;;
59854;SDS011;45732;52.850;6.896;2023-08-30T05:15:48;14.30;;;11.82;;
59854;SDS011;45732;52.850;6.896;2023-08-30T05:18:14;15.52;;;12.20;;
59854;SDS011;45732;52.850;6.896;2023-08-30T05:20:40;15.98;;;11.48;;
59854;SDS011;45732;52.850;6.896;2023-08-30T05:23:05;14.70;;;11.75;;
59854;SDS011;45732;52.850;6.896;2023-08-30T05:25:31;14.93;;;12.05;;
59854;SDS011;45732;52.850;6.896;2023-08-30T05:27:57;14.40;;;11.98;;
59854;SDS011;45732;52.850;6.896;2023-08-30T05:30:22;13.48;;;10.93;;
59854;SDS011;45732;52.850;6.896;2023-08-30T05:32:48;15.95;;;11.90;;
59854;SDS011;45732;52.850;6.896;2023-08-30T05:35:14;14.43;;;11.90;;
59854;SDS011;45732;52.850;6.896;2023-08-30T05:37:40;15.48;;;11.57;;
59854;SDS011;45732;52.850;6.896;2023-08-30T05:40:06;15.02;;;11.38;;
59854;SDS011;45732;52.850;6.896;2023-08-30T05:42:32;14.98;;;11.70;;
59854;SDS011;45732;52.850;6.896;2023-08-30T05:44:58;14.00;;;11.50;;
59854;SDS011;45732;52.850;6.896;2023-08-30T05:47:24;15.25;;;12.30;;
59854;SDS011;45732;52.850;6.896;2023-08-30T05:49:49;13.85;;;11.70;;
59854;SDS011;45732;52.850;6.896;2023-08-30T05:52:15;15.15;;;12.02;;
59854;SDS011;45732;52.850;6.896;2023-08-30T05:54:41;13.50;;;11.27;;
59854;SDS011;45732;52.850;6.896;2023-08-30T05:57:07;14.90;;;12.18;;
59854;SDS011;45732;52.850;6.896;2023-08-30T05:59:34;16.42;;;12.02;;
59854;SDS011;45732;52.850;6.896;2023-08-30T06:02:00;14.35;;;12.05;;
59854;SDS011;45732;52.850;6.896;2023-08-30T06:04:26;14.85;;;11.73;;
59854;SDS011;45732;52.850;6.896;2023-08-30T06:06:52;12.90;;;10.75;;
59854;SDS011;45732;52.850;6.896;2023-08-30T06:09:18;13.95;;;10.95;;
59854;SDS011;45732;52.850;6.896;2023-08-30T06:11:43;14.70;;;12.18;;
59854;SDS011;45732;52.850;6.896;2023-08-30T06:14:09;13.95;;;11.20;;
59854;SDS011;45732;52.850;6.896;2023-08-30T06:16:35;15.80;;;11.73;;
59854;SDS011;45732;52.850;6.896;2023-08-30T06:19:01;15.30;;;11.60;;
59854;SDS011;45732;52.850;6.896;2023-08-30T06:21:27;14.15;;;11.20;;
59854;SDS011;45732;52.850;6.896;2023-08-30T06:23:53;13.98;;;11.10;;
59854;SDS011;45732;52.850;6.896;2023-08-30T06:26:19;15.23;;;11.23;;
59854;SDS011;45732;52.850;6.896;2023-08-30T06:28:44;13.77;;;11.82;;
59854;SDS011;45732;52.850;6.896;2023-08-30T06:31:10;15.30;;;11.05;;
59854;SDS011;45732;52.850;6.896;2023-08-30T06:33:36;13.75;;;11.60;;
59854;SDS011;45732;52.850;6.896;2023-08-30T06:36:03;16.52;;;11.35;;
59854;SDS011;45732;52.850;6.896;2023-08-30T06:38:29;14.30;;;11.75;;
59854;SDS011;45732;52.850;6.896;2023-08-30T06:40:57;16.13;;;11.43;;
59854;SDS011;45732;52.850;6.896;2023-08-30T06:43:23;15.88;;;12.20;;
59854;SDS011;45732;52.850;6.896;2023-08-30T06:45:49;16.70;;;12.65;;
59854;SDS011;45732;52.850;6.896;2023-08-30T06:48:15;15.48;;;13.10;;
59854;SDS011;45732;52.850;6.896;2023-08-30T06:50:40;15.68;;;12.25;;
59854;SDS011;45732;52.850;6.896;2023-08-30T06:53:06;16.98;;;13.07;;
59854;SDS011;45732;52.850;6.896;2023-08-30T06:55:32;16.55;;;12.63;;
59854;SDS011;45732;52.850;6.896;2023-08-30T06:57:58;15.23;;;12.57;;
59854;SDS011;45732;52.850;6.896;2023-08-30T07:00:24;17.35;;;13.10;;
59854;SDS011;45732;52.850;6.896;2023-08-30T07:02:50;15.00;;;12.20;;
59854;SDS011;45732;52.850;6.896;2023-08-30T07:05:16;15.25;;;12.63;;
59854;SDS011;45732;52.850;6.896;2023-08-30T07:07:41;16.35;;;12.98;;
59854;SDS011;45732;52.850;6.896;2023-08-30T07:10:07;18.05;;;13.73;;
59854;SDS011;45732;52.850;6.896;2023-08-30T07:12:34;16.17;;;13.32;;
59854;SDS011;45732;52.850;6.896;2023-08-30T07:14:59;16.38;;;12.57;;
59854;SDS011;45732;52.850;6.896;2023-08-30T07:17:25;18.55;;;12.82;;
59854;SDS011;45732;52.850;6.896;2023-08-30T07:19:51;16.00;;;12.32;;
59854;SDS011;45732;52.850;6.896;2023-08-30T07:22:16;16.27;;;12.68;;
59854;SDS011;45732;52.850;6.896;2023-08-30T07:24:42;15.20;;;12.45;;
59854;SDS011;45732;52.850;6.896;2023-08-30T07:27:09;15.40;;;12.75;;
59854;SDS011;45732;52.850;6.896;2023-08-30T07:29:36;17.35;;;12.75;;
59854;SDS011;45732;52.850;6.896;2023-08-30T07:32:02;17.70;;;13.30;;
59854;SDS011;45732;52.850;6.896;2023-08-30T07:34:28;17.15;;;12.82;;
59854;SDS011;45732;52.850;6.896;2023-08-30T07:36:53;16.73;;;13.23;;
59854;SDS011;45732;52.850;6.896;2023-08-30T07:39:21;15.52;;;12.85;;
59854;SDS011;45732;52.850;6.896;2023-08-30T07:41:46;18.88;;;12.60;;
59854;SDS011;45732;52.850;6.896;2023-08-30T07:44:12;17.00;;;12.90;;
59854;SDS011;45732;52.850;6.896;2023-08-30T07:46:38;15.25;;;12.63;;
59854;SDS011;45732;52.850;6.896;2023-08-30T07:49:03;14.65;;;12.05;;
59854;SDS011;45732;52.850;6.896;2023-08-30T07:51:29;15.57;;;12.38;;
59854;SDS011;45732;52.850;6.896;2023-08-30T07:53:55;17.15;;;11.82;;
59854;SDS011;45732;52.850;6.896;2023-08-30T07:56:21;16.80;;;12.20;;
59854;SDS011;45732;52.850;6.896;2023-08-30T07:58:46;15.57;;;12.13;;
59854;SDS011;45732;52.850;6.896;2023-08-30T08:01:12;15.45;;;12.13;;
59854;SDS011;45732;52.850;6.896;2023-08-30T08:03:38;16.55;;;12.27;;
59854;SDS011;45732;52.850;6.896;2023-08-30T08:06:05;15.23;;;11.70;;
59854;SDS011;45732;52.850;6.896;2023-08-30T08:08:31;16.42;;;12.68;;
59854;SDS011;45732;52.850;6.896;2023-08-30T08:10:58;15.43;;;11.77;;
59854;SDS011;45732;52.850;6.896;2023-08-30T08:13:24;15.65;;;12.38;;
59854;SDS011;45732;52.850;6.896;2023-08-30T08:15:50;16.10;;;12.93;;
59854;SDS011;45732;52.850;6.896;2023-08-30T08:18:16;16.88;;;12.82;;
59854;SDS011;45732;52.850;6.896;2023-08-30T08:20:42;16.48;;;12.13;;
59854;SDS011;45732;52.850;6.896;2023-08-30T08:23:08;16.40;;;12.20;;
59854;SDS011;45732;52.850;6.896;2023-08-30T08:25:34;15.57;;;12.57;;
59854;SDS011;45732;52.850;6.896;2023-08-30T08:28:00;14.98;;;11.93;;
59854;SDS011;45732;52.850;6.896;2023-08-30T08:30:25;15.95;;;12.63;;
59854;SDS011;45732;52.850;6.896;2023-08-30T08:32:51;15.40;;;11.70;;
59854;SDS011;45732;52.850;6.896;2023-08-30T08:35:17;15.57;;;12.70;;
59854;SDS011;45732;52.850;6.896;2023-08-30T08:37:42;18.13;;;13.13;;
59854;SDS011;45732;52.850;6.896;2023-08-30T08:40:08;14.80;;;11.93;;
59854;SDS011;45732;52.850;6.896;2023-08-30T08:42:35;16.75;;;12.80;;
59854;SDS011;45732;52.850;6.896;2023-08-30T08:45:02;15.35;;;11.43;;
59854;SDS011;45732;52.850;6.896;2023-08-30T08:47:31;14.23;;;11.85;;
59854;SDS011;45732;52.850;6.896;2023-08-30T08:49:57;13.75;;;11.07;;
59854;SDS011;45732;52.850;6.896;2023-08-30T08:52:24;14.85;;;11.57;;
59854;SDS011;45732;52.850;6.896;2023-08-30T08:54:50;15.85;;;11.45;;
59854;SDS011;45732;52.850;6.896;2023-08-30T08:57:17;14.65;;;10.23;;
59854;SDS011;45732;52.850;6.896;2023-08-30T08:59:44;15.63;;;11.15;;
59854;SDS011;45732;52.850;6.896;2023-08-30T09:02:12;13.15;;;10.57;;
59854;SDS011;45732;52.850;6.896;2023-08-30T09:04:39;14.52;;;10.77;;
59854;SDS011;45732;52.850;6.896;2023-08-30T09:07:05;14.80;;;11.55;;
59854;SDS011;45732;52.850;6.896;2023-08-30T09:09:32;15.88;;;11.13;;
59854;SDS011;45732;52.850;6.896;2023-08-30T09:11:59;14.30;;;11.35;;
59854;SDS011;45732;52.850;6.896;2023-08-30T09:14:25;15.10;;;10.93;;
59854;SDS011;45732;52.850;6.896;2023-08-30T09:17:01;14.90;;;10.65;;
59854;SDS011;45732;52.850;6.896;2023-08-30T09:19:28;15.45;;;11.57;;
59854;SDS011;45732;52.850;6.896;2023-08-30T09:21:55;14.68;;;11.00;;
59854;SDS011;45732;52.850;6.896;2023-08-30T09:24:22;14.80;;;11.27;;
59854;SDS011;45732;52.850;6.896;2023-08-30T09:26:49;14.60;;;10.88;;
59854;SDS011;45732;52.850;6.896;2023-08-30T09:29:17;14.90;;;11.00;;
59854;SDS011;45732;52.850;6.896;2023-08-30T09:31:43;14.27;;;10.48;;
59854;SDS011;45732;52.850;6.896;2023-08-30T09:34:09;15.05;;;11.13;;
59854;SDS011;45732;52.850;6.896;2023-08-30T09:36:38;16.63;;;11.65;;
59854;SDS011;45732;52.850;6.896;2023-08-30T09:39:09;15.13;;;11.40;;
59854;SDS011;45732;52.850;6.896;2023-08-30T09:41:42;14.88;;;10.63;;
59854;SDS011;45732;52.850;6.896;2023-08-30T09:44:10;17.88;;;11.60;;
59854;SDS011;45732;52.850;6.896;2023-08-30T09:46:45;14.63;;;11.63;;
59854;SDS011;45732;52.850;6.896;2023-08-30T09:49:19;14.88;;;11.82;;
59854;SDS011;45732;52.850;6.896;2023-08-30T09:51:49;16.50;;;12.48;;
59854;SDS011;45732;52.850;6.896;2023-08-30T09:54:24;17.05;;;12.15;;
59854;SDS011;45732;52.850;6.896;2023-08-30T09:56:50;17.45;;;11.95;;
59854;SDS011;45732;52.850;6.896;2023-08-30T09:59:18;14.75;;;12.23;;
59854;SDS011;45732;52.850;6.896;2023-08-30T10:01:46;18.13;;;12.82;;
59854;SDS011;45732;52.850;6.896;2023-08-30T10:04:13;15.52;;;12.88;;
59854;SDS011;45732;52.850;6.896;2023-08-30T10:06:40;14.90;;;12.43;;
59854;SDS011;45732;52.850;6.896;2023-08-30T10:09:07;20.95;;;12.60;;
59854;SDS011;45732;52.850;6.896;2023-08-30T10:11:38;16.52;;;12.10;;
59854;SDS011;45732;52.850;6.896;2023-08-30T10:14:04;16.27;;;12.90;;
59854;SDS011;45732;52.850;6.896;2023-08-30T10:16:32;16.35;;;12.38;;
59854;SDS011;45732;52.850;6.896;2023-08-30T10:19:10;14.98;;;12.68;;
59854;SDS011;45732;52.850;6.896;2023-08-30T10:21:40;16.35;;;13.23;;
59854;SDS011;45732;52.850;6.896;2023-08-30T10:24:09;17.13;;;12.77;;
59854;SDS011;45732;52.850;6.896;2023-08-30T10:26:40;15.82;;;13.52;;
59854;SDS011;45732;52.850;6.896;2023-08-30T10:29:09;16.55;;;12.95;;
59854;SDS011;45732;52.850;6.896;2023-08-30T10:31:37;17.38;;;12.40;;
59854;SDS011;45732;52.850;6.896;2023-08-30T10:34:11;14.45;;;12.25;;
59854;SDS011;45732;52.850;6.896;2023-08-30T10:36:55;15.75;;;12.60;;
59854;SDS011;45732;52.850;6.896;2023-08-30T10:39:27;15.05;;;11.50;;
59854;SDS011;45732;52.850;6.896;2023-08-30T10:42:07;15.18;;;11.30;;
59854;SDS011;45732;52.850;6.896;2023-08-30T10:44:49;13.05;;;10.15;;
59854;SDS011;45732;52.850;6.896;2023-08-30T10:47:20;11.43;;;8.10;;
59854;SDS011;45732;52.850;6.896;2023-08-30T10:49:48;10.32;;;7.60;;
59854;SDS011;45732;52.850;6.896;2023-08-30T10:52:14;9.18;;;7.15;;
59854;SDS011;45732;52.850;6.896;2023-08-30T10:54:40;10.25;;;7.55;;
59854;SDS011;45732;52.850;6.896;2023-08-30T10:57:12;11.07;;;7.93;;
59854;SDS011;45732;52.850;6.896;2023-08-30T10:59:39;10.65;;;7.90;;
59854;SDS011;45732;52.850;6.896;2023-08-30T11:02:05;11.68;;;8.27;;
59854;SDS011;45732;52.850;6.896;2023-08-30T11:04:31;11.70;;;9.05;;
59854;SDS011;45732;52.850;6.896;2023-08-30T11:06:57;12.90;;;8.38;;
59854;SDS011;45732;52.850;6.896;2023-08-30T11:09:24;11.38;;;8.95;;
59854;SDS011;45732;52.850;6.896;2023-08-30T11:11:50;12.35;;;9.38;;
59854;SDS011;45732;52.850;6.896;2023-08-30T11:14:17;10.70;;;8.55;;
59854;SDS011;45732;52.850;6.896;2023-08-30T11:16:44;12.32;;;8.73;;
59854;SDS011;45732;52.850;6.896;2023-08-30T11:19:10;13.65;;;9.48;;
59854;SDS011;45732;52.850;6.896;2023-08-30T11:21:40;13.13;;;9.43;;
59854;SDS011;45732;52.850;6.896;2023-08-30T11:24:08;11.20;;;9.32;;
59854;SDS011;45732;52.850;6.896;2023-08-30T11:26:34;13.27;;;9.30;;
59854;SDS011;45732;52.850;6.896;2023-08-30T11:29:03;11.38;;;9.70;;
59854;SDS011;45732;52.850;6.896;2023-08-30T11:31:30;12.70;;;9.85;;
59854;SDS011;45732;52.850;6.896;2023-08-30T11:33:56;15.50;;;9.80;;
59854;SDS011;45732;52.850;6.896;2023-08-30T11:36:24;13.57;;;10.35;;
59854;SDS011;45732;52.850;6.896;2023-08-30T11:38:52;13.80;;;10.05;;
59854;SDS011;45732;52.850;6.896;2023-08-30T11:41:22;13.50;;;10.55;;
59854;SDS011;45732;52.850;6.896;2023-08-30T11:43:48;13.90;;;10.88;;
59854;SDS011;45732;52.850;6.896;2023-08-30T11:46:14;13.20;;;11.13;;
59854;SDS011;45732;52.850;6.896;2023-08-30T11:48:41;13.43;;;10.93;;
59854;SDS011;45732;52.850;6.896;2023-08-30T11:51:08;13.98;;;11.10;;
59854;SDS011;45732;52.850;6.896;2023-08-30T11:53:34;14.48;;;11.77;;
59854;SDS011;45732;52.850;6.896;2023-08-30T11:56:00;14.23;;;12.00;;
59854;SDS011;45732;52.850;6.896;2023-08-30T11:58:26;14.43;;;12.20;;
59854;SDS011;45732;52.850;6.896;2023-08-30T12:00:53;14.88;;;12.00;;
59854;SDS011;45732;52.850;6.896;2023-08-30T12:03:19;15.95;;;13.05;;
59854;SDS011;45732;52.850;6.896;2023-08-30T12:05:48;14.52;;;12.60;;
59854;SDS011;45732;52.850;6.896;2023-08-30T12:08:32;15.95;;;13.18;;
59854;SDS011;45732;52.850;6.896;2023-08-30T12:10:58;14.93;;;12.98;;
59854;SDS011;45732;52.850;6.896;2023-08-30T12:13:28;15.88;;;13.65;;
59854;SDS011;45732;52.850;6.896;2023-08-30T12:15:57;16.67;;;14.38;;
59854;SDS011;45732;52.850;6.896;2023-08-30T12:18:24;16.63;;;14.75;;
59854;SDS011;45732;52.850;6.896;2023-08-30T12:23:29;16.80;;;14.55;;
59854;SDS011;45732;52.850;6.896;2023-08-30T12:25:59;14.95;;;13.32;;
59854;SDS011;45732;52.850;6.896;2023-08-30T12:28:33;15.75;;;13.75;;
59854;SDS011;45732;52.850;6.896;2023-08-30T12:31:01;16.35;;;14.07;;
59854;SDS011;45732;52.850;6.896;2023-08-30T12:33:29;14.77;;;12.98;;
59854;SDS011;45732;52.850;6.896;2023-08-30T12:35:55;16.27;;;12.98;;
59854;SDS011;45732;52.850;6.896;2023-08-30T12:38:22;14.13;;;12.63;;
59854;SDS011;45732;52.850;6.896;2023-08-30T12:40:49;14.25;;;12.50;;
59854;SDS011;45732;52.850;6.896;2023-08-30T12:43:16;13.00;;;10.77;;
59854;SDS011;45732;52.850;6.896;2023-08-30T12:45:43;14.75;;;12.20;;
59854;SDS011;45732;52.850;6.896;2023-08-30T12:48:12;14.32;;;12.75;;
59854;SDS011;45732;52.850;6.896;2023-08-30T12:50:40;12.75;;;11.35;;
59854;SDS011;45732;52.850;6.896;2023-08-30T12:53:08;15.68;;;12.43;;
59854;SDS011;45732;52.850;6.896;2023-08-30T12:55:34;12.68;;;11.38;;
59854;SDS011;45732;52.850;6.896;2023-08-30T12:58:00;12.75;;;10.50;;
59854;SDS011;45732;52.850;6.896;2023-08-30T13:00:26;12.00;;;9.95;;
59854;SDS011;45732;52.850;6.896;2023-08-30T13:02:52;11.45;;;9.68;;
59854;SDS011;45732;52.850;6.896;2023-08-30T13:05:18;10.80;;;9.00;;
59854;SDS011;45732;52.850;6.896;2023-08-30T13:07:44;10.82;;;9.02;;
59854;SDS011;45732;52.850;6.896;2023-08-30T13:10:10;9.88;;;7.93;;
59854;SDS011;45732;52.850;6.896;2023-08-30T13:12:36;8.75;;;7.50;;
59854;SDS011;45732;52.850;6.896;2023-08-30T13:15:03;8.68;;;7.63;;
59854;SDS011;45732;52.850;6.896;2023-08-30T13:17:29;8.10;;;6.63;;
59854;SDS011;45732;52.850;6.896;2023-08-30T13:19:55;8.30;;;6.55;;
59854;SDS011;45732;52.850;6.896;2023-08-30T13:22:22;7.65;;;6.20;;
59854;SDS011;45732;52.850;6.896;2023-08-30T13:24:48;8.40;;;5.40;;
59854;SDS011;45732;52.850;6.896;2023-08-30T13:27:13;7.35;;;5.68;;
59854;SDS011;45732;52.850;6.896;2023-08-30T13:29:39;7.60;;;5.63;;
59854;SDS011;45732;52.850;6.896;2023-08-30T13:32:05;7.72;;;6.07;;
59854;SDS011;45732;52.850;6.896;2023-08-30T13:34:31;7.72;;;5.63;;
59854;SDS011;45732;52.850;6.896;2023-08-30T13:36:56;7.90;;;5.72;;
59854;SDS011;45732;52.850;6.896;2023-08-30T13:39:22;6.95;;;5.53;;
59854;SDS011;45732;52.850;6.896;2023-08-30T13:41:48;7.30;;;5.68;;
59854;SDS011;45732;52.850;6.896;2023-08-30T13:44:14;7.25;;;5.88;;
59854;SDS011;45732;52.850;6.896;2023-08-30T13:46:40;7.40;;;5.55;;
59854;SDS011;45732;52.850;6.896;2023-08-30T13:49:06;7.50;;;5.78;;
59854;SDS011;45732;52.850;6.896;2023-08-30T13:51:32;7.45;;;5.90;;
59854;SDS011;45732;52.850;6.896;2023-08-30T13:53:58;7.45;;;5.70;;
59854;SDS011;45732;52.850;6.896;2023-08-30T13:56:24;7.30;;;5.72;;
59854;SDS011;45732;52.850;6.896;2023-08-30T13:58:49;7.65;;;5.40;;
59854;SDS011;45732;52.850;6.896;2023-08-30T14:01:15;7.20;;;5.70;;
59854;SDS011;45732;52.850;6.896;2023-08-30T14:03:41;7.03;;;5.57;;
59854;SDS011;45732;52.850;6.896;2023-08-30T14:06:08;8.02;;;6.40;;
59854;SDS011;45732;52.850;6.896;2023-08-30T14:08:33;8.13;;;6.75;;
59854;SDS011;45732;52.850;6.896;2023-08-30T14:10:59;8.70;;;6.68;;
59854;SDS011;45732;52.850;6.896;2023-08-30T14:13:25;8.13;;;6.60;;
59854;SDS011;45732;52.850;6.896;2023-08-30T14:15:53;8.60;;;7.05;;
59854;SDS011;45732;52.850;6.896;2023-08-30T14:18:19;9.73;;;7.05;;
59854;SDS011;45732;52.850;6.896;2023-08-30T14:20:44;9.10;;;7.47;;
59854;SDS011;45732;52.850;6.896;2023-08-30T14:23:10;9.73;;;7.93;;
59854;SDS011;45732;52.850;6.896;2023-08-30T14:25:36;9.30;;;7.93;;
59854;SDS011;45732;52.850;6.896;2023-08-30T14:28:02;9.85;;;8.43;;
59854;SDS011;45732;52.850;6.896;2023-08-30T14:30:29;10.82;;;8.63;;
59854;SDS011;45732;52.850;6.896;2023-08-30T14:32:55;10.23;;;8.40;;
59854;SDS011;45732;52.850;6.896;2023-08-30T14:35:21;10.70;;;7.95;;